createdAt,value
2023-02-21T00:00:52.425Z,9.40
2023-02-21T00:03:39.489Z,9.40
2023-02-21T00:06:26.825Z,9.20
2023-02-21T00:09:14.007Z,9.20
2023-02-21T00:12:01.326Z,9.20
2023-02-21T00:14:46.834Z,9.20
2023-02-21T00:17:32.516Z,9.20
2023-02-21T00:20:18.634Z,9.10
2023-02-21T00:23:04.883Z,9.20
2023-02-21T00:25:51.969Z,9.10
2023-02-21T00:28:37.555Z,9.00
2023-02-21T00:31:23.504Z,9.00
2023-02-21T00:34:08.776Z,9.00
2023-02-21T00:36:54.301Z,8.90
2023-02-21T00:39:40.061Z,8.90
2023-02-21T00:42:27.196Z,8.70
2023-02-21T00:45:12.981Z,8.80
2023-02-21T00:47:59.014Z,8.90
2023-02-21T00:50:44.644Z,8.70
2023-02-21T00:53:30.108Z,8.70
2023-02-21T00:56:15.760Z,8.60
2023-02-21T00:59:02.443Z,8.60
2023-02-21T01:01:48.104Z,8.70
2023-02-21T01:04:33.628Z,8.70
2023-02-21T01:07:19.351Z,8.60
2023-02-21T01:10:04.926Z,8.60
2023-02-21T01:12:50.567Z,8.60
2023-02-21T01:15:37.662Z,8.60
2023-02-21T01:18:23.396Z,8.60
2023-02-21T01:21:08.996Z,8.40
2023-02-21T01:23:54.414Z,8.40
2023-02-21T01:26:40.055Z,8.50
2023-02-21T01:29:25.890Z,8.50
2023-02-21T01:32:12.653Z,8.50
2023-02-21T01:34:58.032Z,8.40
2023-02-21T01:37:43.754Z,8.30
2023-02-21T01:40:33.499Z,8.40
2023-02-21T01:43:19.172Z,8.40
2023-02-21T01:46:09.277Z,8.40
2023-02-21T01:48:56.540Z,8.50
2023-02-21T01:51:45.456Z,8.40
2023-02-21T01:54:31.438Z,8.30
2023-02-21T01:57:19.608Z,8.30
2023-02-21T02:00:05.848Z,8.10
2023-02-21T02:03:01.813Z,8.20
2023-02-21T02:05:48.869Z,8.10
2023-02-21T02:08:39.371Z,8.00
2023-02-21T02:11:35.463Z,8.10
2023-02-21T02:14:21.155Z,8.00
2023-02-21T02:16:57.654Z,8.00
2023-02-21T02:20:22.095Z,8.00
2023-02-21T02:23:27.944Z,8.00
2023-02-21T02:26:19.019Z,8.00
2023-02-21T02:29:05.813Z,8.20
2023-02-21T02:31:47.697Z,8.00
2023-02-21T02:34:44.733Z,8.00
2023-02-21T02:37:19.772Z,8.10
2023-02-21T02:39:53.002Z,8.00
2023-02-21T02:42:37.664Z,8.00
2023-02-21T02:45:13.649Z,7.80
2023-02-21T02:47:45.861Z,7.90
2023-02-21T02:50:17.592Z,7.90
2023-02-21T02:52:53.421Z,7.80
2023-02-21T02:55:37.517Z,7.90
2023-02-21T02:58:06.506Z,7.80
2023-02-21T03:00:38.641Z,7.70
2023-02-21T03:03:25.745Z,7.60
2023-02-21T03:06:14.271Z,7.70
2023-02-21T03:08:53.124Z,7.60
2023-02-21T03:11:23.944Z,7.70
2023-02-21T03:13:58.763Z,7.60
2023-02-21T03:16:30.043Z,7.60
2023-02-21T03:19:03.062Z,7.60
2023-02-21T03:21:37.270Z,7.70
2023-02-21T03:24:07.252Z,7.60
2023-02-21T03:26:38.224Z,7.70
2023-02-21T03:29:06.526Z,7.70
2023-02-21T03:31:38.897Z,7.70
2023-02-21T03:34:06.983Z,7.60
2023-02-21T03:36:38.153Z,7.60
2023-02-21T03:39:06.489Z,7.50
2023-02-21T03:41:34.730Z,7.60
2023-02-21T03:44:02.827Z,7.50
2023-02-21T03:46:30.882Z,7.50
2023-02-21T03:48:58.951Z,7.50
2023-02-21T03:51:26.994Z,7.40
2023-02-21T03:53:56.414Z,7.40
2023-02-21T03:56:28.078Z,7.50
2023-02-21T03:59:01.632Z,7.60
2023-02-21T04:01:30.045Z,7.40
2023-02-21T04:03:58.149Z,7.40
2023-02-21T04:06:26.266Z,7.40
2023-02-21T04:08:54.404Z,7.40
2023-02-21T04:11:24.148Z,7.40
2023-02-21T04:13:52.184Z,7.30
2023-02-21T04:16:20.301Z,7.30
2023-02-21T04:18:48.413Z,7.30
2023-02-21T04:21:19.057Z,7.30
2023-02-21T04:23:47.175Z,7.40
2023-02-21T04:26:15.236Z,7.30
2023-02-21T04:28:44.662Z,7.10
2023-02-21T04:31:12.905Z,7.20
2023-02-21T04:33:41.385Z,7.30
2023-02-21T04:36:10.024Z,7.20
2023-02-21T04:38:38.673Z,7.20
2023-02-21T04:41:07.951Z,7.20
2023-02-21T04:43:36.053Z,7.20
2023-02-21T04:46:05.716Z,7.20
2023-02-21T04:48:34.169Z,7.10
2023-02-21T04:51:14.850Z,7.10
2023-02-21T04:53:43.666Z,7.20
2023-02-21T04:56:12.867Z,7.10
2023-02-21T04:58:45.193Z,7.10
2023-02-21T05:01:16.771Z,7.10
2023-02-21T05:03:45.601Z,7.10
2023-02-21T05:06:19.389Z,7.00
2023-02-21T05:08:47.545Z,7.00
2023-02-21T05:11:16.330Z,7.10
2023-02-21T05:13:45.002Z,7.10
2023-02-21T05:16:13.345Z,7.00
2023-02-21T05:18:45.276Z,6.80
2023-02-21T05:21:13.975Z,6.80
2023-02-21T05:23:54.265Z,6.80
2023-02-21T05:26:24.229Z,6.90
2023-02-21T05:28:52.867Z,7.00
2023-02-21T05:31:21.686Z,7.00
2023-02-21T05:33:51.222Z,6.90
2023-02-21T05:36:19.525Z,6.90
2023-02-21T05:38:49.068Z,6.90
2023-02-21T05:41:18.115Z,7.00
2023-02-21T05:43:46.581Z,6.90
2023-02-21T05:46:23.530Z,6.90
2023-02-21T05:48:53.659Z,6.90
2023-02-21T05:51:22.291Z,6.90
2023-02-21T05:53:51.151Z,6.80
2023-02-21T05:56:21.236Z,6.80
2023-02-21T05:58:49.372Z,6.70
2023-02-21T06:01:17.672Z,6.80
2023-02-21T06:03:45.919Z,6.80
2023-02-21T06:06:16.058Z,6.70
2023-02-21T06:08:45.306Z,6.60
2023-02-21T06:11:14.227Z,6.60
2023-02-21T06:13:43.031Z,6.70
2023-02-21T06:16:11.105Z,6.80
2023-02-21T06:18:39.159Z,6.80
2023-02-21T06:21:07.631Z,6.70
2023-02-21T06:23:37.094Z,6.60
2023-02-21T06:26:05.510Z,6.40
2023-02-21T06:28:33.657Z,6.50
2023-02-21T06:31:02.295Z,6.60
2023-02-21T06:33:30.433Z,6.70
2023-02-21T06:35:58.636Z,6.70
2023-02-21T06:38:26.736Z,6.70
2023-02-21T06:40:56.161Z,6.70
2023-02-21T06:43:24.257Z,6.70
2023-02-21T06:45:52.398Z,6.80
2023-02-21T06:48:20.482Z,6.70
2023-02-21T06:50:48.546Z,6.70
2023-02-21T06:53:16.642Z,6.70
2023-02-21T06:55:44.696Z,6.80
2023-02-21T06:58:14.188Z,6.80
2023-02-21T07:00:42.304Z,6.80
2023-02-21T07:03:10.356Z,6.90
2023-02-21T07:05:39.133Z,6.90
2023-02-21T07:08:07.322Z,6.90
2023-02-21T07:10:35.430Z,7.10
2023-02-21T07:13:03.506Z,7.30
2023-02-21T07:15:33.106Z,7.30
2023-02-21T07:18:01.359Z,7.30
2023-02-21T07:20:29.521Z,7.20
2023-02-21T07:22:57.622Z,7.20
2023-02-21T07:25:26.158Z,7.30
2023-02-21T07:27:54.214Z,7.30
2023-02-21T07:30:22.463Z,7.40
2023-02-21T07:32:52.006Z,7.40
2023-02-21T07:35:20.176Z,7.50
2023-02-21T07:37:48.398Z,7.60
2023-02-21T07:40:16.621Z,7.70
2023-02-21T07:42:45.381Z,7.70
2023-02-21T07:45:14.119Z,7.80
2023-02-21T07:47:43.874Z,7.90
2023-02-21T07:50:13.712Z,8.10
2023-02-21T07:52:41.816Z,8.40
2023-02-21T07:55:12.165Z,8.60
2023-02-21T07:57:40.465Z,8.90
2023-02-21T08:00:10.086Z,9.10
2023-02-21T08:02:38.136Z,9.40
2023-02-21T08:05:06.714Z,9.70
2023-02-21T08:07:36.289Z,9.90
2023-02-21T08:10:04.745Z,10.10
2023-02-21T08:12:32.815Z,10.50
2023-02-21T08:15:00.982Z,10.80
2023-02-21T08:17:29.228Z,11.30
2023-02-21T08:19:57.512Z,11.60
2023-02-21T08:22:25.696Z,11.90
2023-02-21T08:24:55.245Z,12.20
2023-02-21T08:27:23.480Z,12.50
2023-02-21T08:29:52.287Z,12.80
2023-02-21T08:32:21.466Z,13.10
2023-02-21T08:34:50.815Z,13.50
2023-02-21T08:37:19.997Z,13.90
2023-02-21T08:39:48.281Z,14.20
2023-02-21T08:42:18.046Z,14.60
2023-02-21T08:44:46.950Z,14.90
2023-02-21T08:47:16.863Z,15.40
2023-02-21T08:49:47.299Z,15.80
2023-02-21T08:52:16.602Z,16.10
2023-02-21T08:54:45.523Z,16.50
2023-02-21T08:57:14.269Z,16.90
2023-02-21T08:59:45.137Z,17.30
2023-02-21T09:02:17.217Z,17.60
2023-02-21T09:04:45.372Z,18.10
2023-02-21T09:07:14.187Z,18.60
2023-02-21T09:09:42.349Z,19.10
2023-02-21T09:12:11.085Z,19.50
2023-02-21T09:14:41.063Z,20.00
2023-02-21T09:17:13.466Z,20.40
2023-02-21T09:19:42.285Z,20.60
2023-02-21T09:22:10.925Z,20.90
2023-02-21T09:24:39.335Z,21.20
2023-02-21T09:27:07.948Z,21.50
2023-02-21T09:29:46.021Z,21.80
2023-02-21T09:32:16.375Z,21.70
2023-02-21T09:34:44.688Z,22.20
2023-02-21T09:37:12.853Z,22.60
2023-02-21T09:39:40.967Z,23.00
2023-02-21T09:42:11.888Z,22.80
2023-02-21T09:44:40.059Z,23.20
2023-02-21T09:47:09.077Z,23.80
2023-02-21T09:49:41.621Z,24.00
2023-02-21T09:52:19.253Z,24.50
2023-02-21T09:54:52.430Z,24.70
2023-02-21T09:57:20.609Z,25.30
2023-02-21T09:59:49.899Z,25.60
2023-02-21T10:02:31.199Z,25.70
2023-02-21T10:05:08.688Z,25.50
2023-02-21T10:07:45.897Z,25.40
2023-02-21T10:10:18.639Z,25.30
2023-02-21T10:12:55.069Z,25.20
2023-02-21T10:15:41.778Z,25.10
2023-02-21T10:18:21.001Z,25.10
2023-02-21T10:20:54.761Z,25.40
2023-02-21T10:23:28.437Z,25.80
2023-02-21T10:25:59.887Z,26.30
2023-02-21T10:28:28.511Z,26.80
2023-02-21T10:31:00.175Z,26.90
2023-02-21T10:33:28.877Z,27.50
2023-02-21T10:35:58.374Z,28.20
2023-02-21T10:38:27.716Z,29.00
2023-02-21T10:40:58.251Z,29.60
2023-02-21T10:43:32.659Z,30.20
2023-02-21T10:46:05.407Z,30.90
2023-02-21T10:48:37.215Z,31.60
2023-02-21T10:51:12.564Z,32.50
2023-02-21T10:53:42.388Z,33.00
2023-02-21T10:56:31.451Z,33.30
2023-02-21T10:59:01.519Z,33.90
2023-02-21T11:01:39.693Z,33.80
2023-02-21T11:04:23.573Z,34.20
2023-02-21T11:06:55.961Z,34.40
2023-02-21T11:09:35.203Z,34.70
2023-02-21T11:12:06.160Z,34.30
2023-02-21T11:14:34.990Z,34.10
2023-02-21T11:17:16.406Z,33.40
2023-02-21T11:19:50.215Z,33.80
2023-02-21T11:22:23.115Z,34.10
2023-02-21T11:25:00.392Z,34.00
2023-02-21T11:27:31.260Z,34.10
2023-02-21T11:30:01.177Z,33.90
2023-02-21T11:32:34.012Z,33.10
2023-02-21T11:35:05.137Z,33.40
2023-02-21T11:37:35.151Z,33.60
2023-02-21T11:40:05.762Z,33.30
2023-02-21T11:42:35.131Z,31.00
2023-02-21T11:45:19.671Z,28.20
2023-02-21T11:47:54.985Z,26.40
2023-02-21T11:50:27.054Z,25.20
2023-02-21T11:53:03.272Z,24.20
2023-02-21T11:55:31.397Z,23.10
2023-02-21T11:58:11.447Z,22.60
2023-02-21T12:01:01.876Z,22.30
2023-02-21T12:04:02.818Z,22.30
2023-02-21T12:06:38.580Z,21.40
2023-02-21T12:09:11.440Z,21.20
2023-02-21T12:11:50.143Z,21.30
2023-02-21T12:14:33.136Z,21.50
2023-02-21T12:17:15.035Z,21.30
2023-02-21T12:20:08.516Z,21.30
2023-02-21T12:22:49.413Z,21.50
2023-02-21T12:25:24.779Z,21.50
2023-02-21T12:27:58.777Z,20.80
2023-02-21T12:31:05.664Z,20.70
2023-02-21T12:33:44.087Z,20.60
2023-02-21T12:36:40.846Z,20.20
2023-02-21T12:39:32.579Z,20.60
2023-02-21T12:42:16.421Z,20.70
2023-02-21T12:44:56.049Z,20.80
2023-02-21T12:47:29.657Z,20.80
2023-02-21T12:50:05.216Z,20.70
2023-02-21T12:52:37.611Z,20.40
2023-02-21T12:55:10.845Z,20.50
2023-02-21T12:58:00.563Z,20.80
2023-02-21T13:00:34.867Z,21.00
2023-02-21T13:03:18.786Z,21.10
2023-02-21T13:05:49.813Z,20.90
2023-02-21T13:08:22.491Z,21.10
2023-02-21T13:10:56.326Z,21.00
2023-02-21T13:13:32.308Z,21.10
2023-02-21T13:16:04.081Z,21.10
2023-02-21T13:18:35.694Z,20.80
2023-02-21T13:21:17.487Z,20.80
2023-02-21T13:24:12.349Z,20.60
2023-02-21T13:26:51.627Z,20.70
2023-02-21T13:29:25.260Z,20.70
2023-02-21T13:32:00.951Z,20.90
2023-02-21T13:34:32.308Z,20.90
2023-02-21T13:37:07.236Z,20.90
2023-02-21T13:39:37.757Z,20.80
2023-02-21T13:42:09.914Z,20.80
2023-02-21T13:44:42.343Z,20.80
2023-02-21T13:47:14.086Z,20.70
2023-02-21T13:49:53.626Z,20.70
2023-02-21T13:52:59.082Z,20.70
2023-02-21T13:55:36.133Z,20.50
2023-02-21T13:58:46.686Z,20.40
2023-02-21T14:01:32.952Z,20.40
2023-02-21T14:04:01.132Z,20.40
2023-02-21T14:06:37.635Z,20.50
2023-02-21T14:09:14.451Z,20.50
2023-02-21T14:11:49.181Z,20.30
2023-02-21T14:14:26.927Z,20.00
2023-02-21T14:17:03.210Z,19.90
2023-02-21T14:19:37.846Z,20.00
2023-02-21T14:22:12.840Z,20.10
2023-02-21T14:24:44.487Z,20.30
2023-02-21T14:27:33.800Z,20.20
2023-02-21T14:30:34.457Z,20.30
2023-02-21T14:33:19.248Z,20.40
2023-02-21T14:35:55.301Z,20.50
2023-02-21T14:38:26.026Z,20.50
2023-02-21T14:41:07.091Z,20.50
2023-02-21T14:43:58.139Z,20.40
2023-02-21T14:47:06.540Z,20.30
2023-02-21T14:49:56.889Z,20.30
2023-02-21T14:52:46.627Z,20.00
2023-02-21T14:55:37.593Z,19.80
2023-02-21T14:58:53.592Z,19.80
2023-02-21T15:01:42.154Z,19.90
2023-02-21T15:04:19.398Z,19.80
2023-02-21T15:07:04.515Z,19.70
2023-02-21T15:09:32.699Z,19.80
2023-02-21T15:12:02.493Z,19.70
2023-02-21T15:14:36.692Z,19.60
2023-02-21T15:17:14.273Z,19.60
2023-02-21T15:19:42.429Z,19.70
2023-02-21T15:22:19.173Z,19.70
2023-02-21T15:25:19.456Z,19.70
2023-02-21T15:28:01.870Z,19.80
2023-02-21T15:30:41.508Z,19.70
2023-02-21T15:33:16.579Z,19.60
2023-02-21T15:35:51.763Z,19.50
2023-02-21T15:38:29.181Z,19.50
2023-02-21T15:41:03.815Z,19.60
2023-02-21T15:43:39.516Z,19.60
2023-02-21T15:46:11.021Z,19.60
2023-02-21T15:48:39.557Z,19.50
2023-02-21T15:51:10.332Z,19.40
2023-02-21T15:53:40.131Z,19.40
2023-02-21T15:56:24.510Z,19.30
2023-02-21T15:59:14.560Z,19.30
2023-02-21T16:01:42.944Z,19.30
2023-02-21T16:04:20.485Z,19.20
2023-02-21T16:06:58.735Z,19.20
2023-02-21T16:09:30.401Z,19.10
2023-02-21T16:12:01.668Z,19.10
2023-02-21T16:14:39.253Z,19.00
2023-02-21T16:17:20.642Z,18.90
2023-02-21T16:19:53.839Z,18.70
2023-02-21T16:22:33.018Z,18.50
2023-02-21T16:25:21.945Z,18.40
2023-02-21T16:27:52.596Z,18.40
2023-02-21T16:30:22.932Z,18.30
2023-02-21T16:32:53.535Z,18.10
2023-02-21T16:35:24.494Z,18.00
2023-02-21T16:37:55.080Z,17.90
2023-02-21T16:40:27.163Z,17.90
2023-02-21T16:42:57.313Z,17.80
2023-02-21T16:45:25.709Z,17.70
2023-02-21T16:47:58.009Z,17.60
2023-02-21T16:50:30.351Z,17.50
2023-02-21T16:52:58.952Z,17.40
2023-02-21T16:55:29.379Z,17.30
2023-02-21T16:58:00.351Z,17.20
2023-02-21T17:00:28.645Z,17.10
2023-02-21T17:02:56.844Z,17.00
2023-02-21T17:05:25.576Z,16.80
2023-02-21T17:07:55.773Z,16.70
2023-02-21T17:10:24.431Z,16.50
2023-02-21T17:12:53.887Z,16.40
2023-02-21T17:15:23.820Z,16.20
2023-02-21T17:17:53.908Z,16.10
2023-02-21T17:20:24.079Z,16.00
2023-02-21T17:22:52.658Z,16.00
2023-02-21T17:25:21.758Z,16.00
2023-02-21T17:27:50.736Z,15.90
2023-02-21T17:30:23.283Z,15.90
2023-02-21T17:32:52.061Z,16.00
2023-02-21T17:35:22.497Z,15.90
2023-02-21T17:37:51.595Z,15.90
2023-02-21T17:40:21.746Z,15.60
2023-02-21T17:42:50.197Z,15.70
2023-02-21T17:45:21.762Z,15.70
2023-02-21T17:47:51.303Z,15.60
2023-02-21T17:50:19.710Z,15.60
2023-02-21T17:52:48.373Z,15.40
2023-02-21T17:55:20.728Z,15.20
2023-02-21T17:57:49.120Z,15.20
2023-02-21T18:00:24.337Z,15.10
2023-02-21T18:02:53.446Z,15.00
2023-02-21T18:05:22.173Z,14.80
2023-02-21T18:07:50.914Z,14.80
2023-02-21T18:10:20.219Z,14.80
2023-02-21T18:12:50.990Z,14.70
2023-02-21T18:15:22.280Z,14.60
2023-02-21T18:17:50.444Z,14.40
2023-02-21T18:20:18.862Z,14.30
2023-02-21T18:22:47.728Z,14.30
2023-02-21T18:25:21.288Z,14.20
2023-02-21T18:27:49.651Z,14.20
2023-02-21T18:30:18.963Z,14.10
2023-02-21T18:32:48.687Z,14.10
2023-02-21T18:35:17.918Z,14.00
2023-02-21T18:37:47.235Z,13.90
2023-02-21T18:40:16.391Z,13.80
2023-02-21T18:42:45.430Z,13.80
2023-02-21T18:45:14.000Z,13.70
2023-02-21T18:47:42.270Z,13.60
2023-02-21T18:50:12.054Z,13.70
2023-02-21T18:52:40.328Z,13.70
2023-02-21T18:55:09.077Z,13.60
2023-02-21T18:57:37.400Z,13.60
2023-02-21T19:00:07.634Z,13.50
2023-02-21T19:02:35.825Z,13.40
2023-02-21T19:05:04.046Z,13.20
2023-02-21T19:07:36.429Z,13.40
2023-02-21T19:10:04.905Z,13.40
2023-02-21T19:12:33.088Z,13.30
2023-02-21T19:15:01.205Z,13.30
2023-02-21T19:17:29.293Z,13.20
2023-02-21T19:19:57.652Z,13.10
2023-02-21T19:22:25.746Z,13.10
2023-02-21T19:24:55.150Z,13.10
2023-02-21T19:27:23.246Z,13.00
2023-02-21T19:29:52.177Z,12.80
2023-02-21T19:32:20.555Z,12.80
2023-02-21T19:34:50.332Z,12.90
2023-02-21T19:37:18.548Z,12.80
2023-02-21T19:39:46.709Z,12.70
2023-02-21T19:42:16.159Z,12.70
2023-02-21T19:44:44.351Z,12.70
2023-02-21T19:47:12.589Z,12.70
2023-02-21T19:49:45.756Z,12.70
2023-02-21T19:52:13.939Z,12.60
2023-02-21T19:54:42.231Z,12.60
2023-02-21T19:57:10.299Z,12.60
2023-02-21T19:59:39.791Z,12.60
2023-02-21T20:02:08.107Z,12.50
2023-02-21T20:04:36.392Z,12.50
2023-02-21T20:07:04.907Z,12.40
2023-02-21T20:09:33.051Z,12.30
2023-02-21T20:12:01.220Z,12.30
2023-02-21T20:14:29.762Z,12.30
2023-02-21T20:16:59.296Z,12.30
2023-02-21T20:19:27.761Z,12.10
2023-02-21T20:21:55.929Z,12.10
2023-02-21T20:24:24.302Z,12.10
2023-02-21T20:26:53.398Z,11.80
2023-02-21T20:29:23.544Z,11.80
2023-02-21T20:31:52.046Z,11.80
2023-02-21T20:34:21.767Z,11.80
2023-02-21T20:36:49.903Z,11.90
2023-02-21T20:39:20.949Z,11.80
2023-02-21T20:41:49.802Z,11.80
2023-02-21T20:44:17.931Z,11.70
2023-02-21T20:46:46.066Z,11.70
2023-02-21T20:49:14.901Z,11.60
2023-02-21T20:51:45.066Z,11.80
2023-02-21T20:54:19.910Z,11.80
2023-02-21T20:56:49.698Z,11.70
2023-02-21T20:59:19.980Z,11.60
2023-02-21T21:01:49.104Z,11.50
2023-02-21T21:04:18.669Z,11.40
2023-02-21T21:06:48.607Z,11.50
2023-02-21T21:09:18.023Z,11.50
2023-02-21T21:11:46.788Z,11.50
2023-02-21T21:14:16.546Z,11.40
2023-02-21T21:16:45.817Z,11.30
2023-02-21T21:19:14.060Z,11.20
2023-02-21T21:21:42.378Z,11.20
2023-02-21T21:24:11.902Z,11.10
2023-02-21T21:26:50.859Z,11.10
2023-02-21T21:29:19.011Z,11.00
2023-02-21T21:31:50.549Z,11.00
2023-02-21T21:34:23.157Z,11.00
2023-02-21T21:36:52.079Z,11.00
2023-02-21T21:39:23.399Z,11.00
2023-02-21T21:41:52.791Z,10.90
2023-02-21T21:44:22.443Z,10.80
2023-02-21T21:46:51.635Z,10.70
2023-02-21T21:49:21.123Z,10.80
2023-02-21T21:51:50.390Z,10.80
2023-02-21T21:54:21.678Z,10.90
2023-02-21T21:56:50.013Z,10.80
2023-02-21T21:59:20.324Z,10.70
2023-02-21T22:01:48.954Z,10.70
2023-02-21T22:04:18.954Z,10.60
2023-02-21T22:06:48.266Z,10.60
2023-02-21T22:09:16.717Z,10.60
2023-02-21T22:11:48.242Z,10.60
2023-02-21T22:14:18.077Z,10.50
2023-02-21T22:16:48.101Z,10.50
2023-02-21T22:19:17.396Z,10.50
2023-02-21T22:21:45.728Z,10.50
2023-02-21T22:24:15.693Z,10.50
2023-02-21T22:26:45.954Z,10.40
2023-02-21T22:29:15.621Z,10.50
2023-02-21T22:31:43.951Z,10.60
2023-02-21T22:34:23.456Z,10.50
2023-02-21T22:36:52.704Z,10.50
2023-02-21T22:39:21.366Z,10.40
2023-02-21T22:41:50.843Z,10.40
2023-02-21T22:44:19.772Z,10.30
2023-02-21T22:46:58.266Z,10.30
2023-02-21T22:49:27.215Z,10.20
2023-02-21T22:51:57.479Z,10.30
2023-02-21T22:54:25.967Z,10.30
2023-02-21T22:57:00.770Z,10.20
2023-02-21T22:59:28.936Z,10.10
2023-02-21T23:01:58.335Z,10.20
2023-02-21T23:04:26.892Z,10.20
2023-02-21T23:06:55.832Z,10.30
2023-02-21T23:09:24.860Z,10.20
2023-02-21T23:11:56.537Z,10.00
2023-02-21T23:14:24.602Z,10.10
2023-02-21T23:16:56.713Z,10.20
2023-02-21T23:19:25.264Z,10.20
2023-02-21T23:21:54.293Z,10.00
2023-02-21T23:24:23.471Z,10.10
2023-02-21T23:26:54.598Z,10.00
2023-02-21T23:29:26.486Z,10.10
2023-02-21T23:31:57.756Z,10.00
2023-02-21T23:34:40.396Z,10.00
2023-02-21T23:37:09.384Z,9.90
2023-02-21T23:39:37.581Z,10.00
2023-02-21T23:42:06.040Z,10.00
2023-02-21T23:44:36.368Z,9.90
2023-02-21T23:47:06.033Z,9.90
2023-02-21T23:49:34.430Z,9.80
2023-02-21T23:52:02.612Z,9.80
2023-02-21T23:54:30.897Z,9.70
2023-02-21T23:57:00.732Z,9.50
2023-02-21T23:59:29.065Z,9.40
